createdAt,value
2019-03-28T00:01:17.451Z,5.17
2019-03-28T00:03:44.479Z,5.14
2019-03-28T00:06:11.505Z,5.12
2019-03-28T00:08:38.521Z,5.12
2019-03-28T00:11:05.565Z,5.11
2019-03-28T00:13:32.602Z,5.08
2019-03-28T00:15:59.657Z,5.07
2019-03-28T00:18:26.688Z,5.07
2019-03-28T00:20:53.707Z,5.08
2019-03-28T00:23:45.901Z,5.09
2019-03-28T00:26:12.921Z,5.07
2019-03-28T00:28:39.934Z,5.06
2019-03-28T00:31:06.958Z,5.04
2019-03-28T00:33:33.978Z,5.03
2019-03-28T00:36:00.995Z,5.00
2019-03-28T00:38:28.031Z,5.03
2019-03-28T00:40:55.247Z,5.02
2019-03-28T00:43:22.460Z,5.03
2019-03-28T00:45:49.489Z,5.03
2019-03-28T00:48:16.519Z,5.02
2019-03-28T00:50:43.621Z,5.00
2019-03-28T00:53:10.641Z,4.99
2019-03-28T00:55:37.640Z,4.99
2019-03-28T00:58:04.678Z,5.02
2019-03-28T01:00:31.698Z,5.02
2019-03-28T01:02:58.736Z,5.03
2019-03-28T01:05:25.754Z,5.03
2019-03-28T01:07:52.779Z,5.01
2019-03-28T01:10:19.606Z,4.99
2019-03-28T01:12:46.650Z,4.98
2019-03-28T01:15:13.674Z,4.98
2019-03-28T01:17:40.686Z,4.95
2019-03-28T01:20:07.698Z,4.96
2019-03-28T01:22:34.715Z,4.95
2019-03-28T01:25:02.007Z,4.95
2019-03-28T01:27:29.172Z,4.93
2019-03-28T01:29:56.120Z,4.93
2019-03-28T01:32:23.119Z,4.94
2019-03-28T01:34:50.134Z,4.93
2019-03-28T01:37:17.153Z,4.93
2019-03-28T01:39:44.167Z,4.89
2019-03-28T01:42:11.175Z,4.86
2019-03-28T01:44:38.204Z,4.85
2019-03-28T01:47:05.232Z,4.86
2019-03-28T01:49:32.340Z,4.86
2019-03-28T01:51:59.355Z,4.84
2019-03-28T01:54:26.402Z,4.83
2019-03-28T01:56:53.420Z,4.83
2019-03-28T01:59:21.221Z,4.83
2019-03-28T02:01:48.263Z,4.82
2019-03-28T02:04:15.284Z,4.81
2019-03-28T02:06:42.288Z,4.77
2019-03-28T02:09:09.316Z,4.72
2019-03-28T02:11:36.327Z,4.71
2019-03-28T02:14:03.355Z,4.71
2019-03-28T02:16:30.381Z,4.72
2019-03-28T02:18:57.391Z,4.74
2019-03-28T02:21:24.421Z,4.76
2019-03-28T02:23:51.339Z,4.76
2019-03-28T02:26:18.389Z,4.74
2019-03-28T02:28:45.399Z,4.73
2019-03-28T02:31:12.418Z,4.73
2019-03-28T02:33:39.471Z,4.72
2019-03-28T02:36:06.370Z,4.73
2019-03-28T02:38:33.413Z,4.72
2019-03-28T02:41:00.449Z,4.71
2019-03-28T02:43:27.483Z,4.70
2019-03-28T02:45:54.512Z,4.69
2019-03-28T02:48:21.545Z,4.70
2019-03-28T02:50:48.635Z,4.69
2019-03-28T02:53:15.675Z,4.68
2019-03-28T02:55:42.696Z,4.69
2019-03-28T02:58:10.768Z,4.66
2019-03-28T03:00:38.155Z,4.64
2019-03-28T03:03:05.169Z,4.64
2019-03-28T03:05:32.177Z,4.65
2019-03-28T03:07:59.186Z,4.66
2019-03-28T03:10:26.191Z,4.66
2019-03-28T03:12:53.780Z,4.67
2019-03-28T03:15:20.912Z,4.66
2019-03-28T03:17:47.978Z,4.66
2019-03-28T03:20:14.988Z,4.66
2019-03-28T03:22:42.009Z,4.67
2019-03-28T03:25:12.956Z,4.68
2019-03-28T03:27:56.373Z,4.67
2019-03-28T03:30:08.811Z,4.64
2019-03-28T03:32:35.836Z,4.63
2019-03-28T03:35:02.884Z,4.63
2019-03-28T03:37:30.107Z,4.62
2019-03-28T03:39:57.063Z,4.64
2019-03-28T03:42:24.091Z,4.63
2019-03-28T03:44:51.142Z,4.62
2019-03-28T03:47:18.157Z,4.62
2019-03-28T03:49:45.195Z,4.62
2019-03-28T03:52:12.234Z,4.63
2019-03-28T03:54:39.272Z,4.61
2019-03-28T03:57:06.298Z,4.62
2019-03-28T03:59:33.317Z,4.63
2019-03-28T04:02:00.332Z,4.66
2019-03-28T04:04:27.353Z,4.66
2019-03-28T04:06:54.255Z,4.67
2019-03-28T04:09:21.273Z,4.67
2019-03-28T04:11:48.297Z,4.65
2019-03-28T04:14:15.305Z,4.66
2019-03-28T04:16:42.327Z,4.65
2019-03-28T04:19:09.359Z,4.65
2019-03-28T04:21:36.395Z,4.65
2019-03-28T04:24:03.425Z,4.67
2019-03-28T04:26:31.693Z,4.68
2019-03-28T04:28:58.958Z,4.67
2019-03-28T04:31:25.980Z,4.68
2019-03-28T04:33:53.008Z,4.69
2019-03-28T04:36:20.018Z,4.68
2019-03-28T04:38:47.050Z,4.70
2019-03-28T04:41:14.080Z,4.67
2019-03-28T04:43:41.126Z,4.68
2019-03-28T04:46:08.157Z,4.67
2019-03-28T04:48:35.208Z,4.65
2019-03-28T04:51:02.235Z,4.63
2019-03-28T04:53:29.698Z,4.64
2019-03-28T04:55:56.863Z,4.64
2019-03-28T04:58:23.883Z,4.66
2019-03-28T05:00:50.908Z,4.60
2019-03-28T05:03:17.945Z,4.51
2019-03-28T05:05:44.969Z,4.47
2019-03-28T05:08:11.984Z,4.45
2019-03-28T05:10:38.999Z,4.47
2019-03-28T05:13:06.017Z,4.51
2019-03-28T05:15:33.057Z,4.55
2019-03-28T05:18:00.069Z,4.58
2019-03-28T05:20:27.102Z,4.62
2019-03-28T05:22:54.019Z,4.61
2019-03-28T05:25:20.917Z,4.62
2019-03-28T05:27:47.921Z,4.65
2019-03-28T05:30:17.472Z,4.67
2019-03-28T05:32:44.625Z,4.69
2019-03-28T05:35:11.659Z,4.68
2019-03-28T05:37:38.663Z,4.70
2019-03-28T05:40:05.731Z,4.75
2019-03-28T05:42:32.751Z,4.80
2019-03-28T05:44:59.751Z,4.86
2019-03-28T05:47:26.786Z,4.92
2019-03-28T05:49:53.795Z,4.96
2019-03-28T05:52:20.821Z,5.02
2019-03-28T05:54:47.844Z,5.07
2019-03-28T05:57:14.878Z,5.11
2019-03-28T05:59:41.892Z,5.16
2019-03-28T06:02:08.952Z,5.64
2019-03-28T06:04:35.974Z,6.37
2019-03-28T06:07:02.995Z,7.14
2019-03-28T06:09:30.027Z,7.69
2019-03-28T06:11:57.044Z,8.06
2019-03-28T06:14:24.104Z,8.49
2019-03-28T06:16:51.132Z,8.60
2019-03-28T06:19:18.164Z,8.74
2019-03-28T06:21:45.205Z,8.74
2019-03-28T06:24:12.238Z,8.84
2019-03-28T06:26:39.269Z,8.80
2019-03-28T06:29:08.488Z,8.76
2019-03-28T06:31:35.124Z,8.73
2019-03-28T06:34:02.161Z,8.92
2019-03-28T06:36:29.169Z,8.79
2019-03-28T06:38:56.246Z,8.77
2019-03-28T06:41:23.309Z,9.01
2019-03-28T06:43:50.436Z,9.29
2019-03-28T06:46:17.452Z,9.43
2019-03-28T06:48:44.496Z,9.46
2019-03-28T06:51:11.519Z,9.69
2019-03-28T06:53:38.557Z,10.04
2019-03-28T06:56:05.579Z,10.38
2019-03-28T06:58:32.611Z,10.30
2019-03-28T07:00:59.639Z,9.91
2019-03-28T07:03:26.659Z,9.53
2019-03-28T07:05:53.715Z,9.25
2019-03-28T07:08:20.723Z,9.01
2019-03-28T07:10:47.636Z,8.82
2019-03-28T07:13:14.643Z,8.72
2019-03-28T07:15:41.675Z,8.62
2019-03-28T07:18:08.685Z,8.59
2019-03-28T07:20:35.743Z,8.48
2019-03-28T07:23:02.749Z,8.55
2019-03-28T07:25:29.813Z,8.65
2019-03-28T07:27:56.732Z,8.66
2019-03-28T07:30:23.760Z,8.66
2019-03-28T07:32:50.804Z,8.73
2019-03-28T07:35:17.815Z,8.85
2019-03-28T07:37:44.755Z,9.26
2019-03-28T07:40:11.838Z,9.57
2019-03-28T07:42:38.777Z,9.85
2019-03-28T07:45:06.230Z,10.10
2019-03-28T07:47:33.268Z,10.35
2019-03-28T07:50:00.439Z,10.48
2019-03-28T07:52:27.631Z,10.65
2019-03-28T07:54:54.944Z,10.73
2019-03-28T07:57:21.968Z,10.76
2019-03-28T07:59:48.990Z,10.88
2019-03-28T08:02:16.046Z,10.98
2019-03-28T08:04:43.083Z,11.02
2019-03-28T08:07:10.091Z,10.84
2019-03-28T08:09:37.173Z,10.69
2019-03-28T08:12:04.904Z,10.50
2019-03-28T08:14:32.114Z,10.36
2019-03-28T08:16:59.136Z,10.27
2019-03-28T08:19:26.140Z,10.22
2019-03-28T08:21:53.178Z,10.24
2019-03-28T08:24:20.104Z,10.28
2019-03-28T08:26:47.137Z,10.35
2019-03-28T08:29:14.155Z,10.41
2019-03-28T08:31:43.288Z,10.50
2019-03-28T08:34:10.305Z,10.59
2019-03-28T08:36:37.317Z,10.62
2019-03-28T08:39:05.319Z,10.61
2019-03-28T08:41:32.339Z,10.68
2019-03-28T08:43:59.387Z,10.76
2019-03-28T08:46:26.402Z,10.82
2019-03-28T08:48:53.440Z,10.93
2019-03-28T08:51:20.481Z,11.03
2019-03-28T08:53:47.507Z,11.13
2019-03-28T08:56:14.439Z,11.19
2019-03-28T08:58:41.479Z,11.33
2019-03-28T09:01:08.518Z,11.45
2019-03-28T09:03:35.534Z,11.57
2019-03-28T09:06:02.565Z,11.67
2019-03-28T09:08:29.583Z,11.57
2019-03-28T09:10:56.695Z,11.44
2019-03-28T09:13:23.742Z,11.46
2019-03-28T09:15:50.769Z,11.49
2019-03-28T09:18:17.800Z,11.51
2019-03-28T09:20:44.809Z,11.48
2019-03-28T09:23:11.822Z,11.53
2019-03-28T09:25:38.853Z,11.62
2019-03-28T09:28:05.872Z,11.72
2019-03-28T09:30:46.850Z,11.80
2019-03-28T09:33:02.521Z,11.90
2019-03-28T09:35:29.586Z,11.96
2019-03-28T09:37:56.689Z,12.07
2019-03-28T09:40:23.675Z,12.08
2019-03-28T09:42:50.705Z,12.00
2019-03-28T09:45:17.742Z,11.87
2019-03-28T09:47:44.747Z,11.58
2019-03-28T09:50:11.773Z,11.38
2019-03-28T09:52:38.803Z,11.45
2019-03-28T09:55:05.840Z,11.47
2019-03-28T09:57:32.856Z,11.52
2019-03-28T09:59:59.890Z,11.55
2019-03-28T10:02:26.935Z,11.66
2019-03-28T10:04:53.962Z,11.82
2019-03-28T10:07:20.983Z,11.93
2019-03-28T10:09:48.306Z,11.92
2019-03-28T10:12:15.436Z,12.09
2019-03-28T10:14:42.484Z,12.13
2019-03-28T10:17:09.534Z,12.25
2019-03-28T10:19:36.567Z,12.43
2019-03-28T10:22:03.601Z,12.65
2019-03-28T10:24:30.656Z,12.90
2019-03-28T10:26:57.684Z,13.12
2019-03-28T10:29:24.782Z,13.45
2019-03-28T10:31:51.800Z,13.93
2019-03-28T10:34:18.842Z,14.46
2019-03-28T10:36:45.860Z,15.01
2019-03-28T10:39:12.904Z,15.10
2019-03-28T10:41:40.253Z,14.99
2019-03-28T10:44:07.248Z,15.20
2019-03-28T10:46:34.263Z,15.46
2019-03-28T10:49:01.264Z,15.61
2019-03-28T10:51:28.200Z,15.63
2019-03-28T10:53:55.212Z,15.60
2019-03-28T10:56:24.027Z,15.47
2019-03-28T10:58:51.082Z,15.28
2019-03-28T11:01:31.282Z,15.36
2019-03-28T11:03:46.951Z,15.48
2019-03-28T11:06:13.960Z,15.53
2019-03-28T11:08:40.992Z,15.33
2019-03-28T11:11:08.026Z,15.52
2019-03-28T11:13:35.047Z,15.89
2019-03-28T11:16:02.064Z,16.03
2019-03-28T11:18:29.106Z,16.54
2019-03-28T11:20:56.130Z,16.82
2019-03-28T11:23:23.053Z,16.81
2019-03-28T11:25:50.084Z,16.73
2019-03-28T11:28:17.132Z,16.76
2019-03-28T11:30:44.131Z,16.91
2019-03-28T11:33:11.081Z,16.73
2019-03-28T11:35:38.024Z,16.45
2019-03-28T11:38:05.052Z,16.17
2019-03-28T11:40:32.086Z,15.94
2019-03-28T11:42:59.136Z,15.83
2019-03-28T11:45:27.160Z,15.73
2019-03-28T11:47:54.334Z,15.54
2019-03-28T11:50:21.369Z,15.29
2019-03-28T11:52:48.437Z,15.18
2019-03-28T11:55:17.107Z,15.19
2019-03-28T11:57:44.147Z,15.10
2019-03-28T12:00:11.801Z,14.97
2019-03-28T12:02:38.847Z,14.84
2019-03-28T12:05:06.221Z,14.41
2019-03-28T12:07:33.241Z,14.22
2019-03-28T12:10:00.413Z,14.17
2019-03-28T12:12:27.390Z,14.18
2019-03-28T12:14:54.427Z,14.27
2019-03-28T12:17:21.521Z,14.57
2019-03-28T12:19:48.554Z,15.08
2019-03-28T12:22:15.493Z,16.06
2019-03-28T12:24:42.498Z,16.58
2019-03-28T12:27:09.533Z,16.77
2019-03-28T12:29:36.439Z,16.92
2019-03-28T12:32:13.387Z,17.16
2019-03-28T12:34:32.349Z,17.15
2019-03-28T12:36:59.370Z,17.13
2019-03-28T12:39:26.421Z,17.19
2019-03-28T12:41:53.460Z,17.22
2019-03-28T12:44:20.497Z,17.04
2019-03-28T12:46:47.536Z,16.84
2019-03-28T12:49:14.530Z,16.62
2019-03-28T12:51:41.554Z,16.41
2019-03-28T12:54:08.580Z,16.33
2019-03-28T12:56:35.620Z,16.27
2019-03-28T12:59:02.641Z,16.19
2019-03-28T13:01:29.662Z,16.07
2019-03-28T13:03:56.688Z,15.67
2019-03-28T13:06:23.719Z,15.11
2019-03-28T13:08:50.740Z,14.86
2019-03-28T13:11:17.682Z,15.25
2019-03-28T13:13:44.696Z,15.36
2019-03-28T13:16:11.734Z,15.35
2019-03-28T13:18:38.752Z,15.63
2019-03-28T13:21:13.434Z,15.90
2019-03-28T13:23:34.628Z,16.17
2019-03-28T13:26:01.666Z,16.48
2019-03-28T13:28:28.757Z,16.39
2019-03-28T13:30:56.026Z,16.08
2019-03-28T13:33:23.050Z,15.90
2019-03-28T13:35:50.639Z,15.76
2019-03-28T13:38:17.682Z,15.81
2019-03-28T13:40:44.700Z,15.81
2019-03-28T13:43:11.754Z,15.82
2019-03-28T13:45:38.806Z,15.93
2019-03-28T13:48:05.838Z,16.09
2019-03-28T13:50:32.883Z,16.11
2019-03-28T13:52:59.943Z,16.20
2019-03-28T13:55:26.967Z,16.37
2019-03-28T13:57:53.996Z,16.38
2019-03-28T14:00:28.935Z,16.24
2019-03-28T14:02:59.011Z,16.18
2019-03-28T14:05:24.879Z,15.96
2019-03-28T14:07:51.919Z,15.57
2019-03-28T14:10:21.563Z,15.37
2019-03-28T14:12:47.573Z,15.31
2019-03-28T14:15:14.611Z,15.22
2019-03-28T14:17:41.686Z,15.33
2019-03-28T14:20:08.757Z,15.51
2019-03-28T14:22:35.794Z,15.58
2019-03-28T14:25:02.889Z,15.74
2019-03-28T14:27:29.923Z,15.83
2019-03-28T14:29:56.943Z,15.79
2019-03-28T14:32:23.964Z,15.72
2019-03-28T14:34:51.009Z,15.57
2019-03-28T14:37:18.171Z,15.49
2019-03-28T14:39:45.224Z,15.49
2019-03-28T14:42:12.270Z,15.51
2019-03-28T14:44:39.339Z,15.37
2019-03-28T14:47:06.272Z,15.21
2019-03-28T14:49:33.340Z,14.98
2019-03-28T14:52:00.350Z,14.69
2019-03-28T14:54:27.407Z,14.63
2019-03-28T14:56:54.456Z,14.58
2019-03-28T14:59:31.720Z,14.52
2019-03-28T15:01:50.330Z,14.53
2019-03-28T15:04:17.342Z,14.53
2019-03-28T15:06:44.710Z,14.40
2019-03-28T15:09:11.726Z,14.26
2019-03-28T15:11:38.788Z,14.03
2019-03-28T15:14:05.810Z,13.95
2019-03-28T15:16:32.876Z,13.95
2019-03-28T15:18:59.872Z,13.90
2019-03-28T15:21:26.934Z,13.81
2019-03-28T15:23:53.986Z,13.82
2019-03-28T15:26:21.010Z,13.85
2019-03-28T15:28:48.042Z,13.81
2019-03-28T15:31:15.063Z,13.67
2019-03-28T15:33:42.102Z,13.43
2019-03-28T15:36:09.049Z,13.25
2019-03-28T15:38:36.085Z,13.13
2019-03-28T15:41:03.117Z,13.03
2019-03-28T15:43:30.184Z,12.96
2019-03-28T15:45:57.219Z,12.89
2019-03-28T15:48:24.274Z,12.87
2019-03-28T15:50:51.343Z,12.88
2019-03-28T15:53:18.387Z,12.89
2019-03-28T15:55:45.429Z,12.88
2019-03-28T15:58:22.500Z,12.86
2019-03-28T16:00:41.715Z,12.83
2019-03-28T16:03:09.046Z,12.85
2019-03-28T16:05:36.069Z,12.86
2019-03-28T16:08:03.113Z,12.90
2019-03-28T16:10:30.151Z,13.00
2019-03-28T16:12:57.165Z,13.07
2019-03-28T16:15:24.207Z,13.14
2019-03-28T16:17:51.230Z,13.17
2019-03-28T16:20:18.311Z,13.11
2019-03-28T16:22:45.316Z,13.03
2019-03-28T16:25:15.358Z,12.98
2019-03-28T16:27:42.240Z,12.91
2019-03-28T16:30:15.809Z,12.81
2019-03-28T16:32:43.074Z,12.75
2019-03-28T16:35:10.257Z,12.67
2019-03-28T16:37:37.285Z,12.62
2019-03-28T16:40:04.555Z,12.53
2019-03-28T16:42:31.598Z,12.47
2019-03-28T16:44:58.541Z,12.41
2019-03-28T16:47:25.565Z,12.33
2019-03-28T16:49:52.621Z,12.27
2019-03-28T16:52:19.647Z,12.21
2019-03-28T16:54:46.720Z,12.13
2019-03-28T16:57:13.726Z,12.04
2019-03-28T16:59:40.798Z,11.95
2019-03-28T17:02:07.870Z,11.85
2019-03-28T17:04:36.856Z,11.76
2019-03-28T17:07:03.880Z,11.69
2019-03-28T17:09:30.910Z,11.63
2019-03-28T17:11:57.840Z,11.58
2019-03-28T17:14:24.939Z,11.52
2019-03-28T17:16:51.958Z,11.46
2019-03-28T17:19:18.986Z,11.40
2019-03-28T17:21:46.105Z,11.32
2019-03-28T17:24:13.142Z,11.29
2019-03-28T17:26:40.194Z,11.27
2019-03-28T17:29:07.260Z,11.19
2019-03-28T17:31:34.308Z,11.10
2019-03-28T17:34:01.327Z,11.03
2019-03-28T17:36:28.402Z,10.95
2019-03-28T17:38:55.458Z,10.88
2019-03-28T17:41:22.548Z,10.81
2019-03-28T17:43:49.565Z,10.74
2019-03-28T17:46:18.146Z,10.68
2019-03-28T17:48:45.492Z,10.67
2019-03-28T17:51:12.513Z,10.67
2019-03-28T17:53:39.640Z,10.69
2019-03-28T17:56:06.686Z,10.80
2019-03-28T17:58:34.045Z,10.86
2019-03-28T18:01:01.115Z,10.85
2019-03-28T18:03:31.569Z,10.80
2019-03-28T18:05:58.288Z,10.73
2019-03-28T18:08:25.720Z,10.65
2019-03-28T18:10:52.784Z,10.57
2019-03-28T18:13:19.787Z,10.50
2019-03-28T18:15:46.815Z,10.43
2019-03-28T18:18:13.850Z,10.38
2019-03-28T18:20:40.887Z,10.34
2019-03-28T18:23:07.937Z,10.28
2019-03-28T18:25:34.971Z,10.24
2019-03-28T18:28:01.904Z,10.19
2019-03-28T18:30:28.953Z,10.15
2019-03-28T18:32:56.027Z,10.12
2019-03-28T18:35:22.974Z,10.11
2019-03-28T18:37:50.019Z,10.09
2019-03-28T18:40:17.931Z,10.07
2019-03-28T18:42:44.972Z,10.04
2019-03-28T18:45:12.812Z,10.03
2019-03-28T18:47:39.958Z,10.00
2019-03-28T18:50:07.009Z,9.97
2019-03-28T18:52:34.083Z,9.95
2019-03-28T18:55:01.117Z,9.92
2019-03-28T18:57:28.235Z,9.89
2019-03-28T18:59:55.265Z,9.87
2019-03-28T19:02:22.334Z,9.83
2019-03-28T19:04:49.394Z,9.83
2019-03-28T19:07:16.438Z,9.92
2019-03-28T19:09:43.592Z,9.95
2019-03-28T19:12:31.533Z,9.89
2019-03-28T19:14:58.595Z,9.83
2019-03-28T19:17:25.626Z,9.76
2019-03-28T19:19:52.675Z,9.71
2019-03-28T19:22:19.731Z,9.68
2019-03-28T19:24:46.801Z,9.65
2019-03-28T19:27:13.837Z,9.63
2019-03-28T19:29:40.880Z,9.61
2019-03-28T19:32:07.940Z,9.60
2019-03-28T19:34:35.009Z,9.57
2019-03-28T19:37:02.084Z,9.54
2019-03-28T19:39:30.056Z,9.47
2019-03-28T19:41:57.141Z,9.42
2019-03-28T19:44:25.868Z,9.35
2019-03-28T19:46:53.077Z,9.27
2019-03-28T19:49:20.112Z,9.20
2019-03-28T19:51:47.829Z,9.17
2019-03-28T19:54:15.111Z,9.11
2019-03-28T19:56:42.166Z,9.08
2019-03-28T19:59:09.168Z,9.07
2019-03-28T20:01:36.138Z,9.07
2019-03-28T20:04:03.122Z,9.08
2019-03-28T20:06:30.245Z,9.07
2019-03-28T20:08:57.277Z,9.08
2019-03-28T20:11:24.439Z,9.09
2019-03-28T20:13:51.685Z,9.08
2019-03-28T20:16:18.826Z,9.05
2019-03-28T20:18:45.870Z,9.04
2019-03-28T20:21:12.973Z,9.05
2019-03-28T20:23:40.218Z,8.99
2019-03-28T20:26:07.251Z,8.95
2019-03-28T20:28:34.284Z,8.94
2019-03-28T20:31:01.393Z,8.94
2019-03-28T20:33:28.435Z,8.93
2019-03-28T20:36:11.871Z,8.93
2019-03-28T20:38:24.321Z,8.94
2019-03-28T20:40:51.268Z,8.95
2019-03-28T20:43:18.389Z,8.94
2019-03-28T20:45:45.459Z,8.94
2019-03-28T20:48:12.489Z,8.94
2019-03-28T20:50:39.569Z,8.95
2019-03-28T20:53:06.607Z,8.95
2019-03-28T20:55:33.750Z,8.96
2019-03-28T20:58:00.815Z,8.94
2019-03-28T21:00:35.057Z,8.96
2019-03-28T21:03:03.260Z,8.95
2019-03-28T21:05:30.423Z,8.94
2019-03-28T21:07:57.489Z,8.94
2019-03-28T21:10:24.534Z,8.91
2019-03-28T21:12:51.696Z,8.88
2019-03-28T21:15:19.198Z,8.87
2019-03-28T21:17:46.844Z,8.85
2019-03-28T21:20:13.864Z,8.84
2019-03-28T21:22:40.912Z,8.82
2019-03-28T21:25:08.165Z,8.78
2019-03-28T21:27:35.248Z,8.78
2019-03-28T21:30:02.315Z,8.76
2019-03-28T21:32:29.210Z,8.76
2019-03-28T21:34:56.688Z,8.75
2019-03-28T21:37:24.324Z,8.74
2019-03-28T21:39:51.991Z,8.72
2019-03-28T21:42:19.117Z,8.68
2019-03-28T21:44:46.127Z,8.65
2019-03-28T21:47:13.203Z,8.65
2019-03-28T21:49:40.233Z,8.63
2019-03-28T21:52:07.694Z,8.62
2019-03-28T21:54:34.911Z,8.65
2019-03-28T21:57:01.932Z,8.73
2019-03-28T21:59:28.964Z,8.78
2019-03-28T22:01:55.998Z,8.80
2019-03-28T22:04:23.035Z,8.79
2019-03-28T22:06:50.073Z,8.75
2019-03-28T22:09:17.084Z,8.70
2019-03-28T22:11:44.127Z,8.67
2019-03-28T22:14:11.162Z,8.63
2019-03-28T22:16:38.179Z,8.61
2019-03-28T22:19:05.512Z,8.57
2019-03-28T22:21:32.640Z,8.55
2019-03-28T22:23:59.672Z,8.53
2019-03-28T22:26:26.687Z,8.48
2019-03-28T22:28:53.714Z,8.46
2019-03-28T22:31:20.744Z,8.45
2019-03-28T22:33:47.757Z,8.43
2019-03-28T22:36:14.792Z,8.41
2019-03-28T22:38:41.814Z,8.37
2019-03-28T22:41:08.839Z,8.32
2019-03-28T22:43:38.651Z,8.29
2019-03-28T22:46:04.707Z,8.26
2019-03-28T22:48:31.732Z,8.25
2019-03-28T22:50:58.776Z,8.24
2019-03-28T22:53:25.809Z,8.22
2019-03-28T22:55:52.861Z,8.20
2019-03-28T22:58:19.881Z,8.19
2019-03-28T23:00:51.664Z,8.18
2019-03-28T23:03:18.678Z,8.17
2019-03-28T23:05:45.615Z,8.15
2019-03-28T23:08:12.645Z,8.15
2019-03-28T23:10:39.657Z,8.14
2019-03-28T23:13:06.679Z,8.12
2019-03-28T23:15:33.705Z,8.10
2019-03-28T23:18:00.747Z,8.06
2019-03-28T23:20:28.658Z,8.04
2019-03-28T23:22:55.561Z,8.02
2019-03-28T23:25:22.591Z,7.99
2019-03-28T23:27:49.531Z,7.96
2019-03-28T23:30:16.573Z,7.91
2019-03-28T23:32:43.612Z,7.86
2019-03-28T23:35:10.633Z,7.83
2019-03-28T23:37:37.677Z,7.77
2019-03-28T23:40:04.704Z,7.72
2019-03-28T23:42:31.716Z,7.68
2019-03-28T23:44:58.644Z,7.66
2019-03-28T23:47:25.675Z,7.61
2019-03-28T23:49:52.630Z,7.56
2019-03-28T23:52:19.635Z,7.50
2019-03-28T23:54:46.652Z,7.41
2019-03-28T23:57:13.683Z,7.30
2019-03-28T23:59:40.691Z,7.20
